sensor_id;sensor_type;location;lat;lon;timestamp;P1;durP1;ratioP1;P2;durP2;ratioP2
64738;SDS011;51175;51.186;0.276;2022-11-14T00:00:14;124.50;;;88.15;;
64738;SDS011;51175;51.186;0.276;2022-11-14T00:00:45;120.45;;;86.35;;
64738;SDS011;51175;51.186;0.276;2022-11-14T00:01:16;123.75;;;88.88;;
64738;SDS011;51175;51.186;0.276;2022-11-14T00:01:46;122.20;;;85.07;;
64738;SDS011;51175;51.186;0.276;2022-11-14T00:02:17;124.68;;;88.70;;
64738;SDS011;51175;51.186;0.276;2022-11-14T00:02:50;124.82;;;90.63;;
64738;SDS011;51175;51.186;0.276;2022-11-14T00:03:21;120.10;;;87.70;;
64738;SDS011;51175;51.186;0.276;2022-11-14T00:03:51;123.00;;;88.80;;
64738;SDS011;51175;51.186;0.276;2022-11-14T00:04:21;120.97;;;86.93;;
64738;SDS011;51175;51.186;0.276;2022-11-14T00:04:52;121.85;;;87.00;;
64738;SDS011;51175;51.186;0.276;2022-11-14T00:05:23;124.60;;;87.68;;
64738;SDS011;51175;51.186;0.276;2022-11-14T00:05:53;116.75;;;83.32;;
64738;SDS011;51175;51.186;0.276;2022-11-14T00:06:23;121.90;;;84.95;;
64738;SDS011;51175;51.186;0.276;2022-11-14T00:06:54;122.28;;;87.90;;
64738;SDS011;51175;51.186;0.276;2022-11-14T00:07:25;114.32;;;81.63;;
64738;SDS011;51175;51.186;0.276;2022-11-14T00:08:00;120.63;;;82.70;;
64738;SDS011;51175;51.186;0.276;2022-11-14T00:08:30;113.80;;;82.43;;
64738;SDS011;51175;51.186;0.276;2022-11-14T00:09:01;118.00;;;83.00;;
64738;SDS011;51175;51.186;0.276;2022-11-14T00:09:33;117.03;;;81.97;;
64738;SDS011;51175;51.186;0.276;2022-11-14T00:10:04;118.88;;;82.43;;
64738;SDS011;51175;51.186;0.276;2022-11-14T00:10:35;120.00;;;84.97;;
64738;SDS011;51175;51.186;0.276;2022-11-14T00:11:05;116.22;;;84.18;;
64738;SDS011;51175;51.186;0.276;2022-11-14T00:11:36;116.32;;;82.57;;
64738;SDS011;51175;51.186;0.276;2022-11-14T00:12:06;116.20;;;83.35;;
64738;SDS011;51175;51.186;0.276;2022-11-14T00:12:37;113.25;;;80.65;;
64738;SDS011;51175;51.186;0.276;2022-11-14T00:13:08;112.82;;;80.10;;
64738;SDS011;51175;51.186;0.276;2022-11-14T00:13:38;116.82;;;82.75;;
64738;SDS011;51175;51.186;0.276;2022-11-14T00:14:09;120.05;;;83.45;;
64738;SDS011;51175;51.186;0.276;2022-11-14T00:14:40;111.32;;;80.63;;
64738;SDS011;51175;51.186;0.276;2022-11-14T00:15:10;110.85;;;80.50;;
64738;SDS011;51175;51.186;0.276;2022-11-14T00:15:41;115.07;;;82.32;;
64738;SDS011;51175;51.186;0.276;2022-11-14T00:16:12;115.25;;;81.47;;
64738;SDS011;51175;51.186;0.276;2022-11-14T00:16:43;111.35;;;80.30;;
64738;SDS011;51175;51.186;0.276;2022-11-14T00:17:13;115.43;;;81.88;;
64738;SDS011;51175;51.186;0.276;2022-11-14T00:17:44;111.05;;;80.00;;
64738;SDS011;51175;51.186;0.276;2022-11-14T00:18:14;109.50;;;78.13;;
64738;SDS011;51175;51.186;0.276;2022-11-14T00:18:45;112.80;;;79.43;;
64738;SDS011;51175;51.186;0.276;2022-11-14T00:19:16;110.88;;;78.57;;
64738;SDS011;51175;51.186;0.276;2022-11-14T00:19:46;107.57;;;78.18;;
64738;SDS011;51175;51.186;0.276;2022-11-14T00:20:16;112.60;;;77.10;;
64738;SDS011;51175;51.186;0.276;2022-11-14T00:20:47;115.95;;;81.88;;
64738;SDS011;51175;51.186;0.276;2022-11-14T00:21:18;111.60;;;79.68;;
64738;SDS011;51175;51.186;0.276;2022-11-14T00:21:49;110.47;;;78.35;;
64738;SDS011;51175;51.186;0.276;2022-11-14T00:22:21;113.43;;;77.47;;
64738;SDS011;51175;51.186;0.276;2022-11-14T00:22:51;108.85;;;77.07;;
64738;SDS011;51175;51.186;0.276;2022-11-14T00:23:22;109.82;;;77.82;;
64738;SDS011;51175;51.186;0.276;2022-11-14T00:23:52;114.57;;;79.38;;
64738;SDS011;51175;51.186;0.276;2022-11-14T00:24:23;106.72;;;75.55;;
64738;SDS011;51175;51.186;0.276;2022-11-14T00:24:53;103.05;;;72.75;;
64738;SDS011;51175;51.186;0.276;2022-11-14T00:25:23;104.78;;;75.88;;
64738;SDS011;51175;51.186;0.276;2022-11-14T00:25:54;109.22;;;77.13;;
64738;SDS011;51175;51.186;0.276;2022-11-14T00:26:25;107.38;;;75.68;;
64738;SDS011;51175;51.186;0.276;2022-11-14T00:26:55;107.20;;;76.32;;
64738;SDS011;51175;51.186;0.276;2022-11-14T00:27:25;108.82;;;75.68;;
64738;SDS011;51175;51.186;0.276;2022-11-14T00:27:56;106.88;;;75.75;;
64738;SDS011;51175;51.186;0.276;2022-11-14T00:28:30;104.80;;;74.07;;
64738;SDS011;51175;51.186;0.276;2022-11-14T00:29:00;103.05;;;74.30;;
64738;SDS011;51175;51.186;0.276;2022-11-14T00:29:30;108.72;;;75.95;;
64738;SDS011;51175;51.186;0.276;2022-11-14T00:30:01;107.95;;;76.38;;
64738;SDS011;51175;51.186;0.276;2022-11-14T00:30:31;103.70;;;73.18;;
64738;SDS011;51175;51.186;0.276;2022-11-14T00:31:02;103.65;;;73.28;;
64738;SDS011;51175;51.186;0.276;2022-11-14T00:31:32;106.05;;;74.43;;
64738;SDS011;51175;51.186;0.276;2022-11-14T00:32:03;105.75;;;74.32;;
64738;SDS011;51175;51.186;0.276;2022-11-14T00:32:33;105.40;;;75.82;;
64738;SDS011;51175;51.186;0.276;2022-11-14T00:33:03;106.57;;;73.95;;
64738;SDS011;51175;51.186;0.276;2022-11-14T00:33:34;102.97;;;74.93;;
64738;SDS011;51175;51.186;0.276;2022-11-14T00:34:04;101.53;;;71.80;;
64738;SDS011;51175;51.186;0.276;2022-11-14T00:34:35;103.97;;;73.90;;
64738;SDS011;51175;51.186;0.276;2022-11-14T00:35:06;106.22;;;75.15;;
64738;SDS011;51175;51.186;0.276;2022-11-14T00:35:38;105.75;;;74.18;;
64738;SDS011;51175;51.186;0.276;2022-11-14T00:36:08;104.13;;;71.88;;
64738;SDS011;51175;51.186;0.276;2022-11-14T00:36:39;99.68;;;71.90;;
64738;SDS011;51175;51.186;0.276;2022-11-14T00:37:09;101.75;;;72.10;;
64738;SDS011;51175;51.186;0.276;2022-11-14T00:37:39;108.70;;;75.22;;
64738;SDS011;51175;51.186;0.276;2022-11-14T00:38:10;103.25;;;71.80;;
64738;SDS011;51175;51.186;0.276;2022-11-14T00:38:40;98.85;;;70.15;;
64738;SDS011;51175;51.186;0.276;2022-11-14T00:39:11;99.85;;;71.40;;
64738;SDS011;51175;51.186;0.276;2022-11-14T00:39:43;96.70;;;68.95;;
64738;SDS011;51175;51.186;0.276;2022-11-14T00:40:13;100.30;;;70.78;;
64738;SDS011;51175;51.186;0.276;2022-11-14T00:40:44;100.95;;;71.15;;
64738;SDS011;51175;51.186;0.276;2022-11-14T00:41:14;97.25;;;67.82;;
64738;SDS011;51175;51.186;0.276;2022-11-14T00:41:45;99.80;;;69.45;;
64738;SDS011;51175;51.186;0.276;2022-11-14T00:42:15;103.15;;;70.80;;
64738;SDS011;51175;51.186;0.276;2022-11-14T00:42:45;99.82;;;68.75;;
64738;SDS011;51175;51.186;0.276;2022-11-14T00:43:16;97.18;;;71.50;;
64738;SDS011;51175;51.186;0.276;2022-11-14T00:43:46;99.80;;;69.75;;
64738;SDS011;51175;51.186;0.276;2022-11-14T00:44:17;99.28;;;68.47;;
64738;SDS011;51175;51.186;0.276;2022-11-14T00:44:47;97.65;;;68.78;;
64738;SDS011;51175;51.186;0.276;2022-11-14T00:45:18;100.70;;;68.40;;
64738;SDS011;51175;51.186;0.276;2022-11-14T00:45:48;97.88;;;69.65;;
64738;SDS011;51175;51.186;0.276;2022-11-14T00:46:18;96.80;;;69.55;;
64738;SDS011;51175;51.186;0.276;2022-11-14T00:46:49;100.28;;;70.55;;
64738;SDS011;51175;51.186;0.276;2022-11-14T00:47:19;99.20;;;69.13;;
64738;SDS011;51175;51.186;0.276;2022-11-14T00:47:49;97.95;;;69.03;;
64738;SDS011;51175;51.186;0.276;2022-11-14T00:48:20;97.70;;;68.07;;
64738;SDS011;51175;51.186;0.276;2022-11-14T00:48:50;93.03;;;66.45;;
64738;SDS011;51175;51.186;0.276;2022-11-14T00:49:20;97.63;;;67.13;;
64738;SDS011;51175;51.186;0.276;2022-11-14T00:49:51;92.30;;;65.38;;
64738;SDS011;51175;51.186;0.276;2022-11-14T00:50:21;94.72;;;68.43;;
64738;SDS011;51175;51.186;0.276;2022-11-14T00:50:52;88.95;;;64.50;;
64738;SDS011;51175;51.186;0.276;2022-11-14T00:51:22;97.88;;;66.20;;
64738;SDS011;51175;51.186;0.276;2022-11-14T00:51:52;93.65;;;68.03;;
64738;SDS011;51175;51.186;0.276;2022-11-14T00:52:23;94.80;;;66.53;;
64738;SDS011;51175;51.186;0.276;2022-11-14T00:52:53;97.00;;;67.95;;
64738;SDS011;51175;51.186;0.276;2022-11-14T00:53:24;88.88;;;63.75;;
64738;SDS011;51175;51.186;0.276;2022-11-14T00:53:54;94.00;;;66.75;;
64738;SDS011;51175;51.186;0.276;2022-11-14T00:54:24;93.13;;;63.60;;
64738;SDS011;51175;51.186;0.276;2022-11-14T00:54:56;95.32;;;65.03;;
64738;SDS011;51175;51.186;0.276;2022-11-14T00:55:26;91.10;;;63.78;;
64738;SDS011;51175;51.186;0.276;2022-11-14T00:55:56;94.65;;;66.97;;
64738;SDS011;51175;51.186;0.276;2022-11-14T00:56:27;90.95;;;64.78;;
64738;SDS011;51175;51.186;0.276;2022-11-14T00:56:57;93.90;;;66.13;;
64738;SDS011;51175;51.186;0.276;2022-11-14T00:57:28;91.30;;;63.80;;
64738;SDS011;51175;51.186;0.276;2022-11-14T00:57:58;92.82;;;65.72;;
64738;SDS011;51175;51.186;0.276;2022-11-14T00:58:28;92.55;;;63.63;;
64738;SDS011;51175;51.186;0.276;2022-11-14T00:58:59;90.45;;;62.95;;
64738;SDS011;51175;51.186;0.276;2022-11-14T00:59:29;93.50;;;63.15;;
64738;SDS011;51175;51.186;0.276;2022-11-14T01:00:00;88.82;;;61.63;;
64738;SDS011;51175;51.186;0.276;2022-11-14T01:00:30;90.15;;;64.60;;
64738;SDS011;51175;51.186;0.276;2022-11-14T01:01:01;90.47;;;63.13;;
64738;SDS011;51175;51.186;0.276;2022-11-14T01:01:31;92.10;;;64.05;;
64738;SDS011;51175;51.186;0.276;2022-11-14T01:02:01;84.47;;;59.78;;
64738;SDS011;51175;51.186;0.276;2022-11-14T01:02:32;91.38;;;63.33;;
64738;SDS011;51175;51.186;0.276;2022-11-14T01:03:02;91.18;;;63.90;;
64738;SDS011;51175;51.186;0.276;2022-11-14T01:03:33;90.80;;;65.97;;
64738;SDS011;51175;51.186;0.276;2022-11-14T01:04:03;90.38;;;62.63;;
64738;SDS011;51175;51.186;0.276;2022-11-14T01:04:34;88.53;;;63.35;;
64738;SDS011;51175;51.186;0.276;2022-11-14T01:05:04;89.97;;;63.90;;
64738;SDS011;51175;51.186;0.276;2022-11-14T01:05:44;92.10;;;64.55;;
64738;SDS011;51175;51.186;0.276;2022-11-14T01:06:17;87.38;;;61.97;;
64738;SDS011;51175;51.186;0.276;2022-11-14T01:06:48;91.60;;;65.20;;
64738;SDS011;51175;51.186;0.276;2022-11-14T01:07:19;88.30;;;60.95;;
64738;SDS011;51175;51.186;0.276;2022-11-14T01:07:49;87.97;;;63.33;;
64738;SDS011;51175;51.186;0.276;2022-11-14T01:08:19;84.88;;;60.20;;
64738;SDS011;51175;51.186;0.276;2022-11-14T01:08:50;86.03;;;60.10;;
64738;SDS011;51175;51.186;0.276;2022-11-14T01:09:20;87.55;;;60.78;;
64738;SDS011;51175;51.186;0.276;2022-11-14T01:09:51;88.45;;;61.25;;
64738;SDS011;51175;51.186;0.276;2022-11-14T01:10:21;86.10;;;59.17;;
64738;SDS011;51175;51.186;0.276;2022-11-14T01:10:52;84.03;;;59.92;;
64738;SDS011;51175;51.186;0.276;2022-11-14T01:11:22;86.60;;;61.95;;
64738;SDS011;51175;51.186;0.276;2022-11-14T01:11:53;86.28;;;62.60;;
64738;SDS011;51175;51.186;0.276;2022-11-14T01:12:23;86.47;;;60.42;;
64738;SDS011;51175;51.186;0.276;2022-11-14T01:12:54;89.20;;;60.63;;
64738;SDS011;51175;51.186;0.276;2022-11-14T01:13:24;82.57;;;57.60;;
64738;SDS011;51175;51.186;0.276;2022-11-14T01:13:55;81.25;;;58.95;;
64738;SDS011;51175;51.186;0.276;2022-11-14T01:14:26;82.85;;;58.65;;
64738;SDS011;51175;51.186;0.276;2022-11-14T01:14:56;82.97;;;58.97;;
64738;SDS011;51175;51.186;0.276;2022-11-14T01:15:26;82.55;;;58.47;;
64738;SDS011;51175;51.186;0.276;2022-11-14T01:15:59;83.78;;;59.50;;
64738;SDS011;51175;51.186;0.276;2022-11-14T01:16:30;83.80;;;59.42;;
64738;SDS011;51175;51.186;0.276;2022-11-14T01:17:00;81.25;;;58.28;;
64738;SDS011;51175;51.186;0.276;2022-11-14T01:17:31;82.38;;;58.05;;
64738;SDS011;51175;51.186;0.276;2022-11-14T01:18:01;80.45;;;57.55;;
64738;SDS011;51175;51.186;0.276;2022-11-14T01:18:31;80.97;;;58.53;;
64738;SDS011;51175;51.186;0.276;2022-11-14T01:19:02;78.78;;;56.22;;
64738;SDS011;51175;51.186;0.276;2022-11-14T01:19:33;79.50;;;56.17;;
64738;SDS011;51175;51.186;0.276;2022-11-14T01:20:04;83.15;;;57.90;;
64738;SDS011;51175;51.186;0.276;2022-11-14T01:20:37;80.93;;;55.97;;
64738;SDS011;51175;51.186;0.276;2022-11-14T01:21:10;78.40;;;56.20;;
64738;SDS011;51175;51.186;0.276;2022-11-14T01:21:42;84.10;;;56.58;;
64738;SDS011;51175;51.186;0.276;2022-11-14T01:22:12;77.78;;;56.58;;
64738;SDS011;51175;51.186;0.276;2022-11-14T01:22:43;80.47;;;55.75;;
64738;SDS011;51175;51.186;0.276;2022-11-14T01:23:14;80.15;;;54.83;;
64738;SDS011;51175;51.186;0.276;2022-11-14T01:23:45;77.97;;;54.88;;
64738;SDS011;51175;51.186;0.276;2022-11-14T01:24:16;79.38;;;56.03;;
64738;SDS011;51175;51.186;0.276;2022-11-14T01:24:46;76.65;;;55.42;;
64738;SDS011;51175;51.186;0.276;2022-11-14T01:25:16;77.78;;;53.33;;
64738;SDS011;51175;51.186;0.276;2022-11-14T01:25:47;77.95;;;55.55;;
64738;SDS011;51175;51.186;0.276;2022-11-14T01:26:17;78.05;;;54.40;;
64738;SDS011;51175;51.186;0.276;2022-11-14T01:26:48;74.40;;;55.53;;
64738;SDS011;51175;51.186;0.276;2022-11-14T01:27:18;72.60;;;53.17;;
64738;SDS011;51175;51.186;0.276;2022-11-14T01:27:49;80.95;;;55.90;;
64738;SDS011;51175;51.186;0.276;2022-11-14T01:28:19;76.78;;;55.30;;
64738;SDS011;51175;51.186;0.276;2022-11-14T01:28:50;78.95;;;52.88;;
64738;SDS011;51175;51.186;0.276;2022-11-14T01:29:20;78.63;;;55.22;;
64738;SDS011;51175;51.186;0.276;2022-11-14T01:29:51;78.43;;;54.88;;
64738;SDS011;51175;51.186;0.276;2022-11-14T01:30:21;79.80;;;55.53;;
64738;SDS011;51175;51.186;0.276;2022-11-14T01:30:52;75.10;;;53.60;;
64738;SDS011;51175;51.186;0.276;2022-11-14T01:31:23;76.45;;;54.58;;
64738;SDS011;51175;51.186;0.276;2022-11-14T01:31:55;75.78;;;54.03;;
64738;SDS011;51175;51.186;0.276;2022-11-14T01:32:26;74.15;;;54.28;;
64738;SDS011;51175;51.186;0.276;2022-11-14T01:32:56;74.65;;;53.67;;
64738;SDS011;51175;51.186;0.276;2022-11-14T01:33:27;74.60;;;51.58;;
64738;SDS011;51175;51.186;0.276;2022-11-14T01:33:57;75.05;;;52.35;;
64738;SDS011;51175;51.186;0.276;2022-11-14T01:34:27;77.43;;;56.10;;
64738;SDS011;51175;51.186;0.276;2022-11-14T01:34:58;73.13;;;52.63;;
64738;SDS011;51175;51.186;0.276;2022-11-14T01:35:29;72.55;;;51.90;;
64738;SDS011;51175;51.186;0.276;2022-11-14T01:36:00;68.22;;;50.85;;
64738;SDS011;51175;51.186;0.276;2022-11-14T01:36:31;73.15;;;53.28;;
64738;SDS011;51175;51.186;0.276;2022-11-14T01:37:01;74.32;;;51.95;;
64738;SDS011;51175;51.186;0.276;2022-11-14T01:37:32;71.00;;;51.03;;
64738;SDS011;51175;51.186;0.276;2022-11-14T01:38:03;77.65;;;52.63;;
64738;SDS011;51175;51.186;0.276;2022-11-14T01:38:34;68.35;;;50.53;;
64738;SDS011;51175;51.186;0.276;2022-11-14T01:39:05;74.28;;;53.10;;
64738;SDS011;51175;51.186;0.276;2022-11-14T01:39:35;73.50;;;51.42;;
64738;SDS011;51175;51.186;0.276;2022-11-14T01:40:06;68.55;;;49.22;;
64738;SDS011;51175;51.186;0.276;2022-11-14T01:40:40;72.57;;;53.38;;
64738;SDS011;51175;51.186;0.276;2022-11-14T01:41:12;69.82;;;50.40;;
64738;SDS011;51175;51.186;0.276;2022-11-14T01:41:45;73.32;;;50.80;;
64738;SDS011;51175;51.186;0.276;2022-11-14T01:42:15;77.15;;;51.83;;
64738;SDS011;51175;51.186;0.276;2022-11-14T01:43:10;70.50;;;51.20;;
64738;SDS011;51175;51.186;0.276;2022-11-14T01:43:45;70.28;;;47.63;;
64738;SDS011;51175;51.186;0.276;2022-11-14T01:44:17;67.50;;;45.83;;
64738;SDS011;51175;51.186;0.276;2022-11-14T01:46:20;69.28;;;48.83;;
64738;SDS011;51175;51.186;0.276;2022-11-14T01:46:53;71.03;;;47.10;;
64738;SDS011;51175;51.186;0.276;2022-11-14T01:47:26;68.22;;;48.70;;
64738;SDS011;51175;51.186;0.276;2022-11-14T01:48:01;67.07;;;48.83;;
64738;SDS011;51175;51.186;0.276;2022-11-14T01:49:38;67.32;;;48.17;;
64738;SDS011;51175;51.186;0.276;2022-11-14T01:50:11;67.30;;;46.45;;
64738;SDS011;51175;51.186;0.276;2022-11-14T01:50:41;65.47;;;46.63;;
64738;SDS011;51175;51.186;0.276;2022-11-14T01:51:31;65.50;;;46.70;;
64738;SDS011;51175;51.186;0.276;2022-11-14T01:52:44;65.22;;;45.70;;
64738;SDS011;51175;51.186;0.276;2022-11-14T01:53:15;67.07;;;46.83;;
64738;SDS011;51175;51.186;0.276;2022-11-14T01:53:47;68.72;;;48.10;;
64738;SDS011;51175;51.186;0.276;2022-11-14T01:54:24;63.75;;;46.42;;
64738;SDS011;51175;51.186;0.276;2022-11-14T01:55:00;68.53;;;48.92;;
64738;SDS011;51175;51.186;0.276;2022-11-14T01:55:31;66.70;;;47.08;;
64738;SDS011;51175;51.186;0.276;2022-11-14T01:56:03;68.20;;;46.78;;
64738;SDS011;51175;51.186;0.276;2022-11-14T01:56:37;63.83;;;46.15;;
64738;SDS011;51175;51.186;0.276;2022-11-14T01:57:11;66.57;;;46.47;;
64738;SDS011;51175;51.186;0.276;2022-11-14T01:57:46;66.32;;;45.92;;
64738;SDS011;51175;51.186;0.276;2022-11-14T01:58:17;66.43;;;45.97;;
64738;SDS011;51175;51.186;0.276;2022-11-14T01:58:51;63.17;;;45.88;;
64738;SDS011;51175;51.186;0.276;2022-11-14T01:59:40;62.53;;;44.22;;
64738;SDS011;51175;51.186;0.276;2022-11-14T02:00:13;66.43;;;47.72;;
64738;SDS011;51175;51.186;0.276;2022-11-14T02:00:44;61.90;;;44.15;;
64738;SDS011;51175;51.186;0.276;2022-11-14T02:01:14;58.35;;;41.40;;
64738;SDS011;51175;51.186;0.276;2022-11-14T02:01:46;63.67;;;43.58;;
64738;SDS011;51175;51.186;0.276;2022-11-14T02:02:21;62.53;;;43.88;;
64738;SDS011;51175;51.186;0.276;2022-11-14T02:02:54;63.67;;;43.95;;
64738;SDS011;51175;51.186;0.276;2022-11-14T02:03:25;62.25;;;45.10;;
64738;SDS011;51175;51.186;0.276;2022-11-14T02:03:55;63.85;;;46.20;;
64738;SDS011;51175;51.186;0.276;2022-11-14T02:04:27;59.70;;;44.20;;
64738;SDS011;51175;51.186;0.276;2022-11-14T02:05:05;60.40;;;44.92;;
64738;SDS011;51175;51.186;0.276;2022-11-14T02:05:39;59.92;;;44.60;;
64738;SDS011;51175;51.186;0.276;2022-11-14T02:06:13;59.97;;;42.85;;
64738;SDS011;51175;51.186;0.276;2022-11-14T02:06:45;59.85;;;43.90;;
64738;SDS011;51175;51.186;0.276;2022-11-14T02:07:16;59.75;;;43.75;;
64738;SDS011;51175;51.186;0.276;2022-11-14T02:07:47;64.38;;;44.50;;
64738;SDS011;51175;51.186;0.276;2022-11-14T02:08:18;60.72;;;43.20;;
64738;SDS011;51175;51.186;0.276;2022-11-14T02:08:49;61.35;;;43.80;;
64738;SDS011;51175;51.186;0.276;2022-11-14T02:09:21;61.55;;;44.17;;
64738;SDS011;51175;51.186;0.276;2022-11-14T02:09:52;60.28;;;42.05;;
64738;SDS011;51175;51.186;0.276;2022-11-14T02:10:23;60.10;;;42.30;;
64738;SDS011;51175;51.186;0.276;2022-11-14T02:10:54;59.47;;;43.58;;
64738;SDS011;51175;51.186;0.276;2022-11-14T02:11:27;58.70;;;43.05;;
64738;SDS011;51175;51.186;0.276;2022-11-14T02:11:59;56.60;;;40.78;;
64738;SDS011;51175;51.186;0.276;2022-11-14T02:12:31;58.60;;;42.35;;
64738;SDS011;51175;51.186;0.276;2022-11-14T02:13:02;59.17;;;42.28;;
64738;SDS011;51175;51.186;0.276;2022-11-14T02:13:33;61.50;;;42.60;;
64738;SDS011;51175;51.186;0.276;2022-11-14T02:14:03;58.70;;;42.85;;
64738;SDS011;51175;51.186;0.276;2022-11-14T02:14:35;58.15;;;43.55;;
64738;SDS011;51175;51.186;0.276;2022-11-14T02:15:07;60.53;;;42.83;;
64738;SDS011;51175;51.186;0.276;2022-11-14T02:15:38;61.00;;;42.63;;
64738;SDS011;51175;51.186;0.276;2022-11-14T02:16:09;56.53;;;40.03;;
64738;SDS011;51175;51.186;0.276;2022-11-14T02:16:40;58.17;;;41.05;;
64738;SDS011;51175;51.186;0.276;2022-11-14T02:17:12;56.85;;;40.65;;
64738;SDS011;51175;51.186;0.276;2022-11-14T02:17:44;57.03;;;41.72;;
64738;SDS011;51175;51.186;0.276;2022-11-14T02:18:15;60.20;;;43.22;;
64738;SDS011;51175;51.186;0.276;2022-11-14T02:18:45;56.78;;;42.10;;
64738;SDS011;51175;51.186;0.276;2022-11-14T02:19:16;54.25;;;39.13;;
64738;SDS011;51175;51.186;0.276;2022-11-14T02:19:48;58.03;;;41.30;;
64738;SDS011;51175;51.186;0.276;2022-11-14T02:20:52;58.45;;;41.22;;
64738;SDS011;51175;51.186;0.276;2022-11-14T02:21:22;53.80;;;39.65;;
64738;SDS011;51175;51.186;0.276;2022-11-14T02:21:53;54.58;;;39.15;;
64738;SDS011;51175;51.186;0.276;2022-11-14T02:22:23;58.95;;;41.10;;
64738;SDS011;51175;51.186;0.276;2022-11-14T02:22:53;53.85;;;41.08;;
64738;SDS011;51175;51.186;0.276;2022-11-14T02:23:28;57.67;;;42.03;;
64738;SDS011;51175;51.186;0.276;2022-11-14T02:24:00;54.70;;;40.00;;
64738;SDS011;51175;51.186;0.276;2022-11-14T02:24:31;56.10;;;41.90;;
64738;SDS011;51175;51.186;0.276;2022-11-14T02:25:01;54.92;;;37.97;;
64738;SDS011;51175;51.186;0.276;2022-11-14T02:25:32;56.35;;;40.10;;
64738;SDS011;51175;51.186;0.276;2022-11-14T02:26:02;53.72;;;39.17;;
64738;SDS011;51175;51.186;0.276;2022-11-14T02:26:33;52.13;;;37.90;;
64738;SDS011;51175;51.186;0.276;2022-11-14T02:27:04;53.70;;;39.92;;
64738;SDS011;51175;51.186;0.276;2022-11-14T02:27:36;58.40;;;40.97;;
64738;SDS011;51175;51.186;0.276;2022-11-14T02:28:08;54.03;;;37.78;;
64738;SDS011;51175;51.186;0.276;2022-11-14T02:28:40;52.03;;;39.08;;
64738;SDS011;51175;51.186;0.276;2022-11-14T02:29:11;53.78;;;39.53;;
64738;SDS011;51175;51.186;0.276;2022-11-14T02:29:41;52.75;;;39.45;;
64738;SDS011;51175;51.186;0.276;2022-11-14T02:30:13;54.45;;;38.97;;
64738;SDS011;51175;51.186;0.276;2022-11-14T02:30:45;56.42;;;40.00;;
64738;SDS011;51175;51.186;0.276;2022-11-14T02:31:16;52.60;;;37.70;;
64738;SDS011;51175;51.186;0.276;2022-11-14T02:31:47;52.88;;;37.33;;
64738;SDS011;51175;51.186;0.276;2022-11-14T02:32:17;52.92;;;36.92;;
64738;SDS011;51175;51.186;0.276;2022-11-14T02:32:48;52.30;;;39.00;;
64738;SDS011;51175;51.186;0.276;2022-11-14T02:33:18;52.95;;;38.22;;
64738;SDS011;51175;51.186;0.276;2022-11-14T02:33:48;50.63;;;36.17;;
64738;SDS011;51175;51.186;0.276;2022-11-14T02:34:19;51.95;;;38.05;;
64738;SDS011;51175;51.186;0.276;2022-11-14T02:34:49;53.47;;;37.00;;
64738;SDS011;51175;51.186;0.276;2022-11-14T02:35:20;51.83;;;38.08;;
64738;SDS011;51175;51.186;0.276;2022-11-14T02:35:50;53.65;;;36.97;;
64738;SDS011;51175;51.186;0.276;2022-11-14T02:36:21;50.85;;;37.20;;
64738;SDS011;51175;51.186;0.276;2022-11-14T02:36:51;49.35;;;37.13;;
64738;SDS011;51175;51.186;0.276;2022-11-14T02:37:22;51.50;;;37.58;;
64738;SDS011;51175;51.186;0.276;2022-11-14T02:37:52;47.83;;;36.88;;
64738;SDS011;51175;51.186;0.276;2022-11-14T02:38:22;47.95;;;36.88;;
64738;SDS011;51175;51.186;0.276;2022-11-14T02:38:53;48.00;;;36.58;;
64738;SDS011;51175;51.186;0.276;2022-11-14T02:39:23;51.45;;;37.13;;
64738;SDS011;51175;51.186;0.276;2022-11-14T02:39:54;51.03;;;37.28;;
64738;SDS011;51175;51.186;0.276;2022-11-14T02:40:24;51.72;;;36.53;;
64738;SDS011;51175;51.186;0.276;2022-11-14T02:40:54;48.78;;;37.47;;
64738;SDS011;51175;51.186;0.276;2022-11-14T02:41:25;46.45;;;35.78;;
64738;SDS011;51175;51.186;0.276;2022-11-14T02:41:55;50.05;;;35.17;;
64738;SDS011;51175;51.186;0.276;2022-11-14T02:42:26;51.17;;;38.00;;
64738;SDS011;51175;51.186;0.276;2022-11-14T02:42:56;51.55;;;37.72;;
64738;SDS011;51175;51.186;0.276;2022-11-14T02:43:26;52.40;;;37.35;;
64738;SDS011;51175;51.186;0.276;2022-11-14T02:43:58;53.17;;;38.22;;
64738;SDS011;51175;51.186;0.276;2022-11-14T02:44:28;48.03;;;35.05;;
64738;SDS011;51175;51.186;0.276;2022-11-14T02:44:59;52.35;;;35.72;;
64738;SDS011;51175;51.186;0.276;2022-11-14T02:45:29;48.72;;;36.08;;
64738;SDS011;51175;51.186;0.276;2022-11-14T02:46:00;50.20;;;35.80;;
64738;SDS011;51175;51.186;0.276;2022-11-14T02:46:30;48.67;;;36.15;;
64738;SDS011;51175;51.186;0.276;2022-11-14T02:47:00;47.22;;;34.55;;
64738;SDS011;51175;51.186;0.276;2022-11-14T02:47:31;47.72;;;34.20;;
64738;SDS011;51175;51.186;0.276;2022-11-14T02:48:01;46.00;;;34.58;;
64738;SDS011;51175;51.186;0.276;2022-11-14T02:48:32;49.33;;;36.50;;
64738;SDS011;51175;51.186;0.276;2022-11-14T02:49:04;49.22;;;36.20;;
64738;SDS011;51175;51.186;0.276;2022-11-14T02:49:34;50.58;;;35.03;;
64738;SDS011;51175;51.186;0.276;2022-11-14T02:50:05;48.15;;;36.30;;
64738;SDS011;51175;51.186;0.276;2022-11-14T02:50:35;46.63;;;34.45;;
64738;SDS011;51175;51.186;0.276;2022-11-14T02:51:05;47.00;;;35.70;;
64738;SDS011;51175;51.186;0.276;2022-11-14T02:51:36;49.25;;;36.17;;
64738;SDS011;51175;51.186;0.276;2022-11-14T02:52:07;45.75;;;34.05;;
64738;SDS011;51175;51.186;0.276;2022-11-14T02:52:37;47.28;;;33.63;;
64738;SDS011;51175;51.186;0.276;2022-11-14T02:53:07;47.88;;;34.95;;
64738;SDS011;51175;51.186;0.276;2022-11-14T02:53:38;48.72;;;35.42;;
64738;SDS011;51175;51.186;0.276;2022-11-14T02:54:09;47.75;;;34.55;;
64738;SDS011;51175;51.186;0.276;2022-11-14T02:54:39;44.15;;;33.15;;
64738;SDS011;51175;51.186;0.276;2022-11-14T02:55:10;45.97;;;33.95;;
64738;SDS011;51175;51.186;0.276;2022-11-14T02:55:41;48.13;;;35.08;;
64738;SDS011;51175;51.186;0.276;2022-11-14T02:56:11;47.30;;;33.72;;
64738;SDS011;51175;51.186;0.276;2022-11-14T02:56:41;48.80;;;34.55;;
64738;SDS011;51175;51.186;0.276;2022-11-14T02:57:12;47.03;;;33.88;;
64738;SDS011;51175;51.186;0.276;2022-11-14T02:57:42;46.33;;;33.97;;
64738;SDS011;51175;51.186;0.276;2022-11-14T02:58:13;47.53;;;33.97;;
64738;SDS011;51175;51.186;0.276;2022-11-14T02:58:43;44.25;;;33.22;;
64738;SDS011;51175;51.186;0.276;2022-11-14T02:59:13;42.53;;;32.40;;
64738;SDS011;51175;51.186;0.276;2022-11-14T02:59:44;46.53;;;34.60;;
64738;SDS011;51175;51.186;0.276;2022-11-14T03:00:14;45.95;;;34.38;;
64738;SDS011;51175;51.186;0.276;2022-11-14T03:00:45;46.58;;;34.38;;
64738;SDS011;51175;51.186;0.276;2022-11-14T03:01:15;43.67;;;32.40;;
64738;SDS011;51175;51.186;0.276;2022-11-14T03:01:46;44.25;;;33.22;;
64738;SDS011;51175;51.186;0.276;2022-11-14T03:02:16;46.83;;;32.75;;
64738;SDS011;51175;51.186;0.276;2022-11-14T03:02:47;40.08;;;30.85;;
64738;SDS011;51175;51.186;0.276;2022-11-14T03:03:17;46.33;;;34.05;;
64738;SDS011;51175;51.186;0.276;2022-11-14T03:03:47;44.00;;;32.53;;
64738;SDS011;51175;51.186;0.276;2022-11-14T03:04:18;43.60;;;32.78;;
64738;SDS011;51175;51.186;0.276;2022-11-14T03:04:49;42.78;;;31.80;;
64738;SDS011;51175;51.186;0.276;2022-11-14T03:05:20;45.17;;;32.95;;